sensor_id;sensor_type;location;lat;lon;timestamp;P1;durP1;ratioP1;P2;durP2;ratioP2
15528;SDS011;7866;52.280;9.500;2022-10-22T00:00:40;2.40;;;2.08;;
15528;SDS011;7866;52.280;9.500;2022-10-22T00:05:42;5.65;;;2.30;;
15528;SDS011;7866;52.280;9.500;2022-10-22T00:10:45;3.85;;;2.33;;
15528;SDS011;7866;52.280;9.500;2022-10-22T00:15:47;3.85;;;2.40;;
15528;SDS011;7866;52.280;9.500;2022-10-22T00:20:48;2.85;;;2.10;;
15528;SDS011;7866;52.280;9.500;2022-10-22T00:25:52;4.00;;;2.40;;
15528;SDS011;7866;52.280;9.500;2022-10-22T00:30:55;3.15;;;2.33;;
15528;SDS011;7866;52.280;9.500;2022-10-22T00:35:57;5.47;;;2.10;;
15528;SDS011;7866;52.280;9.500;2022-10-22T00:41:00;5.07;;;2.60;;
15528;SDS011;7866;52.280;9.500;2022-10-22T00:46:02;3.38;;;2.20;;
15528;SDS011;7866;52.280;9.500;2022-10-22T00:51:04;3.33;;;2.10;;
15528;SDS011;7866;52.280;9.500;2022-10-22T00:56:10;5.13;;;2.20;;
15528;SDS011;7866;52.280;9.500;2022-10-22T01:01:12;2.40;;;1.70;;
15528;SDS011;7866;52.280;9.500;2022-10-22T01:06:20;3.90;;;2.08;;
15528;SDS011;7866;52.280;9.500;2022-10-22T01:11:26;4.90;;;2.50;;
15528;SDS011;7866;52.280;9.500;2022-10-22T01:16:36;4.20;;;2.90;;
15528;SDS011;7866;52.280;9.500;2022-10-22T01:21:43;2.88;;;2.58;;
15528;SDS011;7866;52.280;9.500;2022-10-22T01:26:56;3.17;;;2.50;;
15528;SDS011;7866;52.280;9.500;2022-10-22T01:32:06;4.25;;;2.47;;
15528;SDS011;7866;52.280;9.500;2022-10-22T01:37:11;3.88;;;2.72;;
15528;SDS011;7866;52.280;9.500;2022-10-22T01:42:14;4.28;;;3.00;;
15528;SDS011;7866;52.280;9.500;2022-10-22T01:47:20;3.42;;;3.08;;
15528;SDS011;7866;52.280;9.500;2022-10-22T01:52:34;4.05;;;3.03;;
15528;SDS011;7866;52.280;9.500;2022-10-22T01:57:47;4.07;;;2.80;;
15528;SDS011;7866;52.280;9.500;2022-10-22T02:03:01;4.50;;;2.50;;
15528;SDS011;7866;52.280;9.500;2022-10-22T02:08:08;4.80;;;2.70;;
15528;SDS011;7866;52.280;9.500;2022-10-22T02:13:12;2.83;;;2.63;;
15528;SDS011;7866;52.280;9.500;2022-10-22T02:18:19;6.70;;;3.45;;
15528;SDS011;7866;52.280;9.500;2022-10-22T02:23:25;3.42;;;3.13;;
15528;SDS011;7866;52.280;9.500;2022-10-22T02:28:29;4.25;;;3.00;;
15528;SDS011;7866;52.280;9.500;2022-10-22T02:33:37;3.95;;;2.85;;
15528;SDS011;7866;52.280;9.500;2022-10-22T02:38:43;3.55;;;2.90;;
15528;SDS011;7866;52.280;9.500;2022-10-22T02:43:48;3.92;;;2.67;;
15528;SDS011;7866;52.280;9.500;2022-10-22T02:48:52;5.10;;;2.80;;
15528;SDS011;7866;52.280;9.500;2022-10-22T02:53:54;3.35;;;2.30;;
15528;SDS011;7866;52.280;9.500;2022-10-22T02:58:56;2.92;;;2.40;;
15528;SDS011;7866;52.280;9.500;2022-10-22T03:03:59;5.18;;;2.30;;
15528;SDS011;7866;52.280;9.500;2022-10-22T03:09:00;4.13;;;2.00;;
15528;SDS011;7866;52.280;9.500;2022-10-22T03:14:02;3.60;;;2.53;;
15528;SDS011;7866;52.280;9.500;2022-10-22T03:19:05;4.22;;;2.22;;
15528;SDS011;7866;52.280;9.500;2022-10-22T03:24:07;3.58;;;2.10;;
15528;SDS011;7866;52.280;9.500;2022-10-22T03:29:13;6.38;;;2.30;;
15528;SDS011;7866;52.280;9.500;2022-10-22T03:34:17;3.90;;;2.15;;
15528;SDS011;7866;52.280;9.500;2022-10-22T03:39:18;4.57;;;2.08;;
15528;SDS011;7866;52.280;9.500;2022-10-22T03:44:22;3.10;;;1.98;;
15528;SDS011;7866;52.280;9.500;2022-10-22T03:49:25;3.30;;;2.20;;
15528;SDS011;7866;52.280;9.500;2022-10-22T03:54:27;2.63;;;2.40;;
15528;SDS011;7866;52.280;9.500;2022-10-22T03:59:32;2.75;;;2.10;;
15528;SDS011;7866;52.280;9.500;2022-10-22T04:04:36;2.45;;;1.98;;
15528;SDS011;7866;52.280;9.500;2022-10-22T04:09:39;2.45;;;1.95;;
15528;SDS011;7866;52.280;9.500;2022-10-22T04:14:40;5.05;;;2.20;;
15528;SDS011;7866;52.280;9.500;2022-10-22T04:19:43;3.33;;;2.10;;
15528;SDS011;7866;52.280;9.500;2022-10-22T04:24:45;4.88;;;2.30;;
15528;SDS011;7866;52.280;9.500;2022-10-22T04:29:46;2.88;;;2.10;;
15528;SDS011;7866;52.280;9.500;2022-10-22T04:34:49;8.57;;;2.80;;
15528;SDS011;7866;52.280;9.500;2022-10-22T04:39:51;3.60;;;2.65;;
15528;SDS011;7866;52.280;9.500;2022-10-22T04:44:53;3.53;;;2.40;;
15528;SDS011;7866;52.280;9.500;2022-10-22T04:49:56;2.70;;;2.25;;
15528;SDS011;7866;52.280;9.500;2022-10-22T04:54:57;5.88;;;2.80;;
15528;SDS011;7866;52.280;9.500;2022-10-22T04:59:59;2.83;;;2.50;;
15528;SDS011;7866;52.280;9.500;2022-10-22T05:05:02;3.25;;;2.15;;
15528;SDS011;7866;52.280;9.500;2022-10-22T05:10:04;2.17;;;1.77;;
15528;SDS011;7866;52.280;9.500;2022-10-22T05:15:07;3.85;;;2.20;;
15528;SDS011;7866;52.280;9.500;2022-10-22T05:20:11;3.22;;;2.10;;
15528;SDS011;7866;52.280;9.500;2022-10-22T05:25:12;3.70;;;2.22;;
15528;SDS011;7866;52.280;9.500;2022-10-22T05:30:14;4.72;;;1.92;;
15528;SDS011;7866;52.280;9.500;2022-10-22T05:35:17;1.67;;;1.55;;
15528;SDS011;7866;52.280;9.500;2022-10-22T05:40:19;3.75;;;1.95;;
15528;SDS011;7866;52.280;9.500;2022-10-22T05:45:20;2.15;;;1.48;;
15528;SDS011;7866;52.280;9.500;2022-10-22T05:50:23;3.63;;;2.05;;
15528;SDS011;7866;52.280;9.500;2022-10-22T05:55:25;2.70;;;1.67;;
15528;SDS011;7866;52.280;9.500;2022-10-22T06:00:27;3.72;;;1.75;;
15528;SDS011;7866;52.280;9.500;2022-10-22T06:05:30;2.28;;;1.70;;
15528;SDS011;7866;52.280;9.500;2022-10-22T06:10:35;2.38;;;1.63;;
15528;SDS011;7866;52.280;9.500;2022-10-22T06:15:40;4.45;;;2.10;;
15528;SDS011;7866;52.280;9.500;2022-10-22T06:20:43;3.60;;;2.30;;
15528;SDS011;7866;52.280;9.500;2022-10-22T06:25:54;6.80;;;2.63;;
15528;SDS011;7866;52.280;9.500;2022-10-22T06:30:56;4.65;;;2.20;;
15528;SDS011;7866;52.280;9.500;2022-10-22T06:36:05;6.55;;;2.67;;
15528;SDS011;7866;52.280;9.500;2022-10-22T06:41:08;2.83;;;2.60;;
15528;SDS011;7866;52.280;9.500;2022-10-22T06:46:11;3.20;;;3.00;;
15528;SDS011;7866;52.280;9.500;2022-10-22T06:51:15;3.67;;;3.30;;
15528;SDS011;7866;52.280;9.500;2022-10-22T06:56:19;4.90;;;4.50;;
15528;SDS011;7866;52.280;9.500;2022-10-22T07:01:23;3.85;;;3.55;;
15528;SDS011;7866;52.280;9.500;2022-10-22T07:06:27;3.72;;;3.42;;
15528;SDS011;7866;52.280;9.500;2022-10-22T07:11:30;3.33;;;3.03;;
15528;SDS011;7866;52.280;9.500;2022-10-22T07:16:38;4.65;;;3.30;;
15528;SDS011;7866;52.280;9.500;2022-10-22T07:21:43;3.78;;;2.97;;
15528;SDS011;7866;52.280;9.500;2022-10-22T07:26:45;5.68;;;3.55;;
15528;SDS011;7866;52.280;9.500;2022-10-22T07:31:47;5.45;;;3.75;;
15528;SDS011;7866;52.280;9.500;2022-10-22T07:36:50;5.32;;;3.83;;
15528;SDS011;7866;52.280;9.500;2022-10-22T07:41:51;3.88;;;3.58;;
15528;SDS011;7866;52.280;9.500;2022-10-22T07:46:53;3.95;;;3.53;;
15528;SDS011;7866;52.280;9.500;2022-10-22T07:51:56;6.55;;;3.78;;
15528;SDS011;7866;52.280;9.500;2022-10-22T07:56:57;4.13;;;3.83;;
15528;SDS011;7866;52.280;9.500;2022-10-22T08:01:59;3.92;;;3.53;;
15528;SDS011;7866;52.280;9.500;2022-10-22T08:07:02;5.28;;;3.83;;
15528;SDS011;7866;52.280;9.500;2022-10-22T08:12:04;4.78;;;3.58;;
15528;SDS011;7866;52.280;9.500;2022-10-22T08:17:06;5.07;;;3.95;;
15528;SDS011;7866;52.280;9.500;2022-10-22T08:22:10;5.25;;;3.42;;
15528;SDS011;7866;52.280;9.500;2022-10-22T08:27:11;5.10;;;3.42;;
15528;SDS011;7866;52.280;9.500;2022-10-22T08:32:13;5.82;;;2.95;;
15528;SDS011;7866;52.280;9.500;2022-10-22T08:37:16;3.95;;;2.78;;
15528;SDS011;7866;52.280;9.500;2022-10-22T08:42:28;5.68;;;2.83;;
15528;SDS011;7866;52.280;9.500;2022-10-22T08:47:46;5.22;;;3.03;;
15528;SDS011;7866;52.280;9.500;2022-10-22T08:52:59;4.25;;;3.22;;
15528;SDS011;7866;52.280;9.500;2022-10-22T08:58:09;2.60;;;2.40;;
15528;SDS011;7866;52.280;9.500;2022-10-22T09:03:31;3.83;;;2.90;;
15528;SDS011;7866;52.280;9.500;2022-10-22T09:08:40;5.45;;;3.03;;
15528;SDS011;7866;52.280;9.500;2022-10-22T09:13:44;4.00;;;2.83;;
15528;SDS011;7866;52.280;9.500;2022-10-22T09:18:50;3.60;;;2.70;;
15528;SDS011;7866;52.280;9.500;2022-10-22T09:24:04;3.15;;;2.53;;
15528;SDS011;7866;52.280;9.500;2022-10-22T09:29:12;9.25;;;3.25;;
15528;SDS011;7866;52.280;9.500;2022-10-22T09:34:19;6.55;;;4.00;;
15528;SDS011;7866;52.280;9.500;2022-10-22T09:39:23;3.42;;;3.10;;
15528;SDS011;7866;52.280;9.500;2022-10-22T09:44:26;6.47;;;2.75;;
15528;SDS011;7866;52.280;9.500;2022-10-22T09:49:28;7.43;;;2.88;;
15528;SDS011;7866;52.280;9.500;2022-10-22T09:54:38;6.78;;;2.50;;
15528;SDS011;7866;52.280;9.500;2022-10-22T09:59:42;4.45;;;2.20;;
15528;SDS011;7866;52.280;9.500;2022-10-22T10:04:48;3.00;;;2.70;;
15528;SDS011;7866;52.280;9.500;2022-10-22T10:09:52;4.30;;;2.90;;
15528;SDS011;7866;52.280;9.500;2022-10-22T10:14:56;3.10;;;2.60;;
15528;SDS011;7866;52.280;9.500;2022-10-22T10:20:12;3.70;;;2.40;;
15528;SDS011;7866;52.280;9.500;2022-10-22T10:25:26;2.58;;;2.30;;
15528;SDS011;7866;52.280;9.500;2022-10-22T10:30:34;4.25;;;2.05;;
15528;SDS011;7866;52.280;9.500;2022-10-22T10:35:45;5.85;;;2.22;;
15528;SDS011;7866;52.280;9.500;2022-10-22T10:40:56;3.40;;;2.28;;
15528;SDS011;7866;52.280;9.500;2022-10-22T10:46:05;3.83;;;2.63;;
15528;SDS011;7866;52.280;9.500;2022-10-22T10:51:18;3.60;;;2.20;;
15528;SDS011;7866;52.280;9.500;2022-10-22T10:56:40;4.55;;;2.25;;
15528;SDS011;7866;52.280;9.500;2022-10-22T11:01:48;2.95;;;2.20;;
15528;SDS011;7866;52.280;9.500;2022-10-22T11:07:12;6.95;;;2.33;;
15528;SDS011;7866;52.280;9.500;2022-10-22T11:12:20;3.50;;;2.30;;
15528;SDS011;7866;52.280;9.500;2022-10-22T11:17:28;3.38;;;2.33;;
15528;SDS011;7866;52.280;9.500;2022-10-22T11:22:36;3.50;;;1.90;;
15528;SDS011;7866;52.280;9.500;2022-10-22T11:27:44;4.30;;;2.05;;
15528;SDS011;7866;52.280;9.500;2022-10-22T11:32:51;2.60;;;1.67;;
15528;SDS011;7866;52.280;9.500;2022-10-22T11:37:55;8.43;;;2.50;;
15528;SDS011;7866;52.280;9.500;2022-10-22T11:43:02;4.97;;;2.70;;
15528;SDS011;7866;52.280;9.500;2022-10-22T11:48:06;2.03;;;1.80;;
15528;SDS011;7866;52.280;9.500;2022-10-22T11:53:18;4.22;;;2.00;;
15528;SDS011;7866;52.280;9.500;2022-10-22T11:58:32;4.78;;;1.98;;
15528;SDS011;7866;52.280;9.500;2022-10-22T12:03:41;11.38;;;1.88;;
15528;SDS011;7866;52.280;9.500;2022-10-22T12:08:45;5.95;;;1.70;;
15528;SDS011;7866;52.280;9.500;2022-10-22T12:19:23;4.43;;;1.60;;
15528;SDS011;7866;52.280;9.500;2022-10-22T12:24:28;5.50;;;1.80;;
15528;SDS011;7866;52.280;9.500;2022-10-22T12:29:34;8.05;;;1.92;;
15528;SDS011;7866;52.280;9.500;2022-10-22T12:34:36;3.10;;;1.50;;
15528;SDS011;7866;52.280;9.500;2022-10-22T12:39:46;2.60;;;1.85;;
15528;SDS011;7866;52.280;9.500;2022-10-22T12:44:49;5.93;;;1.83;;
15528;SDS011;7866;52.280;9.500;2022-10-22T12:49:55;4.72;;;1.60;;
15528;SDS011;7866;52.280;9.500;2022-10-22T12:54:57;3.53;;;1.67;;
15528;SDS011;7866;52.280;9.500;2022-10-22T13:00:00;8.57;;;1.83;;
15528;SDS011;7866;52.280;9.500;2022-10-22T13:05:06;3.78;;;1.77;;
15528;SDS011;7866;52.280;9.500;2022-10-22T13:10:17;5.95;;;1.80;;
15528;SDS011;7866;52.280;9.500;2022-10-22T13:15:37;4.13;;;1.85;;
15528;SDS011;7866;52.280;9.500;2022-10-22T13:20:48;5.13;;;1.70;;
15528;SDS011;7866;52.280;9.500;2022-10-22T13:25:55;4.13;;;1.45;;
15528;SDS011;7866;52.280;9.500;2022-10-22T13:31:01;2.95;;;1.77;;
15528;SDS011;7866;52.280;9.500;2022-10-22T13:36:10;3.42;;;1.67;;
15528;SDS011;7866;52.280;9.500;2022-10-22T13:41:17;4.57;;;1.60;;
15528;SDS011;7866;52.280;9.500;2022-10-22T13:46:22;3.85;;;1.35;;
15528;SDS011;7866;52.280;9.500;2022-10-22T13:51:27;3.13;;;1.50;;
15528;SDS011;7866;52.280;9.500;2022-10-22T13:56:33;8.55;;;1.77;;
15528;SDS011;7866;52.280;9.500;2022-10-22T14:01:37;4.00;;;1.88;;
15528;SDS011;7866;52.280;9.500;2022-10-22T14:06:39;5.47;;;1.95;;
15528;SDS011;7866;52.280;9.500;2022-10-22T14:11:40;3.53;;;1.50;;
15528;SDS011;7866;52.280;9.500;2022-10-22T14:16:43;2.67;;;1.60;;
15528;SDS011;7866;52.280;9.500;2022-10-22T14:21:45;4.60;;;1.83;;
15528;SDS011;7866;52.280;9.500;2022-10-22T14:26:48;8.27;;;2.00;;
15528;SDS011;7866;52.280;9.500;2022-10-22T14:31:51;5.32;;;2.17;;
15528;SDS011;7866;52.280;9.500;2022-10-22T14:36:52;3.03;;;1.33;;
15528;SDS011;7866;52.280;9.500;2022-10-22T14:41:54;4.53;;;1.77;;
15528;SDS011;7866;52.280;9.500;2022-10-22T14:46:57;2.92;;;1.50;;
15528;SDS011;7866;52.280;9.500;2022-10-22T14:51:59;3.80;;;1.45;;
15528;SDS011;7866;52.280;9.500;2022-10-22T14:57:01;4.93;;;1.58;;
15528;SDS011;7866;52.280;9.500;2022-10-22T15:02:04;3.75;;;1.60;;
15528;SDS011;7866;52.280;9.500;2022-10-22T15:07:05;5.22;;;2.38;;
15528;SDS011;7866;52.280;9.500;2022-10-22T15:12:07;4.25;;;1.92;;
15528;SDS011;7866;52.280;9.500;2022-10-22T15:17:10;3.83;;;1.60;;
15528;SDS011;7866;52.280;9.500;2022-10-22T15:22:12;4.95;;;1.55;;
15528;SDS011;7866;52.280;9.500;2022-10-22T15:27:14;4.97;;;1.48;;
15528;SDS011;7866;52.280;9.500;2022-10-22T15:32:17;5.32;;;1.50;;
15528;SDS011;7866;52.280;9.500;2022-10-22T15:37:19;4.22;;;1.40;;
15528;SDS011;7866;52.280;9.500;2022-10-22T15:42:21;4.13;;;1.73;;
15528;SDS011;7866;52.280;9.500;2022-10-22T15:47:24;4.60;;;1.45;;
15528;SDS011;7866;52.280;9.500;2022-10-22T15:52:29;5.13;;;1.60;;
15528;SDS011;7866;52.280;9.500;2022-10-22T15:57:31;4.25;;;1.33;;
15528;SDS011;7866;52.280;9.500;2022-10-22T16:02:35;3.72;;;1.73;;
15528;SDS011;7866;52.280;9.500;2022-10-22T16:07:37;2.17;;;1.13;;
15528;SDS011;7866;52.280;9.500;2022-10-22T16:12:39;3.40;;;1.75;;
15528;SDS011;7866;52.280;9.500;2022-10-22T16:17:42;3.67;;;1.60;;
15528;SDS011;7866;52.280;9.500;2022-10-22T16:22:44;1.73;;;1.02;;
15528;SDS011;7866;52.280;9.500;2022-10-22T16:27:49;3.53;;;1.52;;
15528;SDS011;7866;52.280;9.500;2022-10-22T16:32:53;7.07;;;1.92;;
15528;SDS011;7866;52.280;9.500;2022-10-22T16:37:54;2.40;;;1.58;;
15528;SDS011;7866;52.280;9.500;2022-10-22T16:42:56;3.50;;;1.40;;
15528;SDS011;7866;52.280;9.500;2022-10-22T16:47:59;9.55;;;1.73;;
15528;SDS011;7866;52.280;9.500;2022-10-22T16:53:00;3.25;;;1.42;;
15528;SDS011;7866;52.280;9.500;2022-10-22T16:58:02;4.75;;;1.48;;
15528;SDS011;7866;52.280;9.500;2022-10-22T17:03:06;8.00;;;1.58;;
15528;SDS011;7866;52.280;9.500;2022-10-22T17:08:07;5.40;;;1.60;;
15528;SDS011;7866;52.280;9.500;2022-10-22T17:13:09;3.08;;;1.45;;
15528;SDS011;7866;52.280;9.500;2022-10-22T17:18:12;2.80;;;1.45;;
15528;SDS011;7866;52.280;9.500;2022-10-22T17:23:14;4.55;;;1.70;;
15528;SDS011;7866;52.280;9.500;2022-10-22T17:28:15;3.25;;;1.30;;
15528;SDS011;7866;52.280;9.500;2022-10-22T17:33:18;5.53;;;1.73;;
15528;SDS011;7866;52.280;9.500;2022-10-22T17:38:20;4.97;;;1.67;;
15528;SDS011;7866;52.280;9.500;2022-10-22T17:43:21;6.13;;;1.92;;
15528;SDS011;7866;52.280;9.500;2022-10-22T17:48:24;3.50;;;1.60;;
15528;SDS011;7866;52.280;9.500;2022-10-22T17:53:26;3.17;;;1.65;;
15528;SDS011;7866;52.280;9.500;2022-10-22T17:58:28;2.80;;;1.60;;
15528;SDS011;7866;52.280;9.500;2022-10-22T18:03:32;6.22;;;1.42;;
15528;SDS011;7866;52.280;9.500;2022-10-22T18:08:34;12.75;;;1.80;;
15528;SDS011;7866;52.280;9.500;2022-10-22T18:13:35;4.28;;;1.65;;
15528;SDS011;7866;52.280;9.500;2022-10-22T18:18:38;9.10;;;1.92;;
15528;SDS011;7866;52.280;9.500;2022-10-22T18:23:40;4.75;;;1.63;;
15528;SDS011;7866;52.280;9.500;2022-10-22T18:28:42;3.45;;;1.60;;
15528;SDS011;7866;52.280;9.500;2022-10-22T18:33:45;3.15;;;1.35;;
15528;SDS011;7866;52.280;9.500;2022-10-22T18:38:48;7.68;;;2.05;;
15528;SDS011;7866;52.280;9.500;2022-10-22T18:43:50;4.57;;;1.42;;
15528;SDS011;7866;52.280;9.500;2022-10-22T18:48:54;6.25;;;1.23;;
15528;SDS011;7866;52.280;9.500;2022-10-22T18:53:56;2.50;;;1.50;;
15528;SDS011;7866;52.280;9.500;2022-10-22T18:58:58;7.03;;;1.67;;
15528;SDS011;7866;52.280;9.500;2022-10-22T19:04:02;3.10;;;1.50;;
15528;SDS011;7866;52.280;9.500;2022-10-22T19:09:03;4.32;;;1.50;;
15528;SDS011;7866;52.280;9.500;2022-10-22T19:14:05;5.35;;;1.40;;
15528;SDS011;7866;52.280;9.500;2022-10-22T19:19:08;4.88;;;1.23;;
15528;SDS011;7866;52.280;9.500;2022-10-22T19:24:11;7.18;;;1.77;;
15528;SDS011;7866;52.280;9.500;2022-10-22T19:29:16;3.35;;;1.25;;
15528;SDS011;7866;52.280;9.500;2022-10-22T19:34:20;4.88;;;1.75;;
15528;SDS011;7866;52.280;9.500;2022-10-22T19:39:22;3.45;;;1.23;;
15528;SDS011;7866;52.280;9.500;2022-10-22T19:44:23;8.30;;;1.50;;
15528;SDS011;7866;52.280;9.500;2022-10-22T19:49:26;7.93;;;1.77;;
15528;SDS011;7866;52.280;9.500;2022-10-22T19:54:28;6.53;;;1.42;;
15528;SDS011;7866;52.280;9.500;2022-10-22T19:59:30;5.65;;;2.05;;
15528;SDS011;7866;52.280;9.500;2022-10-22T20:04:34;4.47;;;1.52;;
15528;SDS011;7866;52.280;9.500;2022-10-22T20:09:36;4.72;;;1.40;;
15528;SDS011;7866;52.280;9.500;2022-10-22T20:14:38;6.03;;;1.40;;
15528;SDS011;7866;52.280;9.500;2022-10-22T20:19:41;2.45;;;1.40;;
15528;SDS011;7866;52.280;9.500;2022-10-22T20:24:43;2.05;;;1.05;;
15528;SDS011;7866;52.280;9.500;2022-10-22T20:29:45;6.32;;;1.50;;
15528;SDS011;7866;52.280;9.500;2022-10-22T20:34:48;11.85;;;1.50;;
15528;SDS011;7866;52.280;9.500;2022-10-22T20:39:49;6.43;;;1.40;;
15528;SDS011;7866;52.280;9.500;2022-10-22T20:44:51;2.28;;;1.10;;
15528;SDS011;7866;52.280;9.500;2022-10-22T20:49:54;5.90;;;1.20;;
15528;SDS011;7866;52.280;9.500;2022-10-22T20:54:56;7.63;;;1.40;;
15528;SDS011;7866;52.280;9.500;2022-10-22T20:59:58;6.30;;;1.27;;
15528;SDS011;7866;52.280;9.500;2022-10-22T21:05:01;9.98;;;1.40;;
15528;SDS011;7866;52.280;9.500;2022-10-22T21:10:03;4.18;;;1.30;;
15528;SDS011;7866;52.280;9.500;2022-10-22T21:15:05;11.80;;;1.83;;
15528;SDS011;7866;52.280;9.500;2022-10-22T21:20:09;1.75;;;1.30;;
15528;SDS011;7866;52.280;9.500;2022-10-22T21:25:11;3.40;;;1.30;;
15528;SDS011;7866;52.280;9.500;2022-10-22T21:30:13;3.00;;;1.30;;
15528;SDS011;7866;52.280;9.500;2022-10-22T21:35:16;2.20;;;1.25;;
15528;SDS011;7866;52.280;9.500;2022-10-22T21:40:18;2.17;;;1.30;;
15528;SDS011;7866;52.280;9.500;2022-10-22T21:45:20;5.82;;;1.63;;
15528;SDS011;7866;52.280;9.500;2022-10-22T21:50:24;7.20;;;1.50;;
15528;SDS011;7866;52.280;9.500;2022-10-22T21:59:27;4.73;;;1.37;;
15528;SDS011;7866;52.280;9.500;2022-10-22T22:04:31;5.77;;;1.40;;
15528;SDS011;7866;52.280;9.500;2022-10-22T22:09:33;7.25;;;2.25;;
15528;SDS011;7866;52.280;9.500;2022-10-22T22:14:36;5.03;;;1.50;;
15528;SDS011;7866;52.280;9.500;2022-10-22T22:19:38;6.60;;;1.63;;
15528;SDS011;7866;52.280;9.500;2022-10-22T22:24:39;3.58;;;1.50;;
15528;SDS011;7866;52.280;9.500;2022-10-22T22:29:43;4.47;;;1.47;;
15528;SDS011;7866;52.280;9.500;2022-10-22T22:34:44;4.90;;;1.63;;
15528;SDS011;7866;52.280;9.500;2022-10-22T22:39:46;3.70;;;1.53;;
15528;SDS011;7866;52.280;9.500;2022-10-22T22:44:49;4.72;;;1.70;;
15528;SDS011;7866;52.280;9.500;2022-10-22T22:49:51;8.00;;;1.97;;
15528;SDS011;7866;52.280;9.500;2022-10-22T22:54:53;5.73;;;1.97;;
15528;SDS011;7866;52.280;9.500;2022-10-22T22:59:56;3.57;;;1.67;;
15528;SDS011;7866;52.280;9.500;2022-10-22T23:04:58;4.30;;;1.60;;
15528;SDS011;7866;52.280;9.500;2022-10-22T23:10:00;8.30;;;2.20;;
15528;SDS011;7866;52.280;9.500;2022-10-22T23:15:04;6.97;;;1.57;;
15528;SDS011;7866;52.280;9.500;2022-10-22T23:20:06;11.25;;;3.05;;
15528;SDS011;7866;52.280;9.500;2022-10-22T23:25:09;10.97;;;1.70;;
15528;SDS011;7866;52.280;9.500;2022-10-22T23:30:12;8.00;;;1.58;;
15528;SDS011;7866;52.280;9.500;2022-10-22T23:35:13;4.77;;;1.70;;
15528;SDS011;7866;52.280;9.500;2022-10-22T23:40:15;3.50;;;1.70;;
15528;SDS011;7866;52.280;9.500;2022-10-22T23:45:18;4.73;;;1.60;;
15528;SDS011;7866;52.280;9.500;2022-10-22T23:50:20;8.37;;;1.70;;
15528;SDS011;7866;52.280;9.500;2022-10-22T23:55:22;8.87;;;1.70;;
